createdAt,value
2023-03-15T00:02:41.988Z,12.32
2023-03-15T00:05:23.568Z,12.73
2023-03-15T00:08:21.071Z,13.10
2023-03-15T00:11:04.173Z,13.10
2023-03-15T00:13:46.755Z,13.90
2023-03-15T00:16:30.563Z,13.60
2023-03-15T00:19:20.254Z,13.82
2023-03-15T00:22:01.592Z,14.35
2023-03-15T00:24:50.950Z,14.18
2023-03-15T00:27:37.700Z,13.20
2023-03-15T00:30:16.377Z,13.23
2023-03-15T00:33:05.848Z,12.07
2023-03-15T00:35:54.525Z,12.00
2023-03-15T00:38:46.597Z,10.48
2023-03-15T00:41:23.359Z,11.95
2023-03-15T00:44:04.721Z,9.50
2023-03-15T00:46:48.657Z,8.63
2023-03-15T00:49:43.300Z,10.13
2023-03-15T00:52:34.709Z,7.43
2023-03-15T00:55:27.945Z,6.78
2023-03-15T00:58:22.294Z,6.40
2023-03-15T01:01:07.223Z,6.03
2023-03-15T01:03:57.803Z,6.47
2023-03-15T01:06:43.584Z,6.63
2023-03-15T01:09:27.748Z,6.60
2023-03-15T01:12:24.973Z,6.57
2023-03-15T01:15:11.970Z,5.63
2023-03-15T01:18:00.750Z,6.47
2023-03-15T01:20:53.746Z,5.68
2023-03-15T01:23:30.593Z,5.88
2023-03-15T01:26:18.237Z,5.57
2023-03-15T01:29:08.890Z,6.00
2023-03-15T01:31:46.775Z,5.03
2023-03-15T01:34:30.201Z,4.68
2023-03-15T01:37:20.301Z,5.65
2023-03-15T01:40:09.246Z,5.20
2023-03-15T01:43:22.515Z,4.25
2023-03-15T01:46:19.209Z,5.43
2023-03-15T01:49:15.541Z,5.60
2023-03-15T01:52:21.565Z,4.88
2023-03-15T01:55:21.540Z,4.68
2023-03-15T01:58:21.661Z,4.38
2023-03-15T02:01:04.435Z,4.90
2023-03-15T02:03:57.586Z,5.28
2023-03-15T02:06:51.398Z,4.63
2023-03-15T02:09:37.767Z,4.72
2023-03-15T02:12:22.142Z,4.55
2023-03-15T02:15:14.643Z,4.85
2023-03-15T02:18:02.156Z,4.88
2023-03-15T02:21:02.653Z,5.00
2023-03-15T02:23:43.548Z,4.80
2023-03-15T02:26:40.119Z,4.60
2023-03-15T02:29:20.603Z,3.97
2023-03-15T02:32:04.641Z,5.28
2023-03-15T02:34:45.949Z,4.90
2023-03-15T02:37:24.607Z,4.55
2023-03-15T02:40:05.953Z,5.45
2023-03-15T02:42:48.563Z,4.35
2023-03-15T02:45:30.237Z,5.18
2023-03-15T02:48:18.638Z,5.47
2023-03-15T02:51:27.939Z,5.07
2023-03-15T02:54:08.321Z,3.95
2023-03-15T02:56:54.938Z,5.05
2023-03-15T02:59:35.510Z,4.13
2023-03-15T03:02:24.448Z,5.30
2023-03-15T03:05:00.543Z,4.70
2023-03-15T03:07:45.762Z,4.53
2023-03-15T03:10:32.962Z,5.45
2023-03-15T03:13:15.076Z,4.80
2023-03-15T03:16:05.067Z,5.05
2023-03-15T03:18:46.037Z,4.90
2023-03-15T03:21:31.139Z,4.80
2023-03-15T03:24:14.953Z,4.93
2023-03-15T03:26:58.218Z,5.13
2023-03-15T03:30:05.634Z,4.65
2023-03-15T03:32:44.955Z,4.88
2023-03-15T03:35:41.070Z,4.25
2023-03-15T03:38:25.988Z,4.25
2023-03-15T03:41:13.644Z,4.63
2023-03-15T03:44:04.095Z,4.93
2023-03-15T03:46:51.278Z,3.92
2023-03-15T03:49:29.623Z,4.60
2023-03-15T03:52:19.223Z,4.07
2023-03-15T03:55:04.883Z,4.28
2023-03-15T03:57:47.172Z,4.10
2023-03-15T04:00:41.908Z,3.92
2023-03-15T04:03:27.410Z,3.80
2023-03-15T04:06:25.105Z,4.18
2023-03-15T04:09:12.986Z,4.20
2023-03-15T04:12:01.787Z,3.63
2023-03-15T04:14:51.506Z,4.68
2023-03-15T04:17:34.742Z,4.32
2023-03-15T04:20:20.444Z,3.78
2023-03-15T04:23:08.519Z,3.80
2023-03-15T04:26:20.562Z,4.40
2023-03-15T04:29:38.545Z,3.80
2023-03-15T04:32:49.694Z,3.97
2023-03-15T04:38:44.525Z,3.33
2023-03-15T04:41:50.805Z,3.63
2023-03-15T04:44:45.984Z,3.45
2023-03-15T04:47:41.387Z,3.65
2023-03-15T04:50:43.572Z,3.00
2023-03-15T04:53:39.134Z,3.38
2023-03-15T04:56:37.935Z,3.03
2023-03-15T04:59:37.524Z,3.40
2023-03-15T05:02:44.130Z,3.55
2023-03-15T05:05:36.091Z,2.97
2023-03-15T05:08:45.514Z,3.75
2023-03-15T05:11:53.256Z,4.05
2023-03-15T05:14:55.568Z,4.40
2023-03-15T05:18:16.928Z,4.32
2023-03-15T05:21:20.411Z,4.43
2023-03-15T05:24:15.769Z,5.05
2023-03-15T05:27:32.406Z,4.72
2023-03-15T05:30:43.778Z,5.28
2023-03-15T05:33:40.217Z,4.63
2023-03-15T05:52:35.758Z,6.22
2023-03-15T05:55:32.008Z,6.80
2023-03-15T05:58:40.093Z,7.38
2023-03-15T06:01:35.417Z,7.22
2023-03-15T06:04:24.799Z,7.55
2023-03-15T06:07:07.956Z,7.18
2023-03-15T06:12:33.884Z,8.18
2023-03-15T06:15:15.730Z,7.40
2023-03-15T06:17:54.760Z,8.15
2023-03-15T06:20:40.470Z,8.52
2023-03-15T06:23:35.058Z,9.95
2023-03-15T06:26:22.500Z,7.97
2023-03-15T06:29:17.802Z,8.50
2023-03-15T06:34:48.324Z,8.73
2023-03-15T06:37:36.054Z,9.05
2023-03-15T06:40:23.710Z,7.95
2023-03-15T06:43:06.701Z,8.50
2023-03-15T06:45:51.478Z,8.70
2023-03-15T06:48:38.078Z,8.60
2023-03-15T06:51:20.964Z,9.60
2023-03-15T06:54:04.680Z,8.70
2023-03-15T06:56:45.407Z,8.80
2023-03-15T06:59:25.757Z,8.75
2023-03-15T07:02:12.503Z,8.63
2023-03-15T07:04:56.672Z,8.55
2023-03-15T07:07:40.059Z,8.50
2023-03-15T07:10:23.412Z,9.02
2023-03-15T07:12:57.962Z,8.82
2023-03-15T07:15:34.171Z,9.02
2023-03-15T07:18:30.279Z,9.90
2023-03-15T07:21:13.609Z,8.90
2023-03-15T07:23:56.767Z,9.05
2023-03-15T07:26:39.934Z,9.65
2023-03-15T07:29:23.340Z,9.73
2023-03-15T07:32:10.124Z,8.98
2023-03-15T07:34:50.634Z,9.52
2023-03-15T07:37:29.520Z,9.00
2023-03-15T07:40:19.778Z,7.70
2023-03-15T07:43:00.772Z,8.75
2023-03-15T07:45:52.159Z,8.45
2023-03-15T07:48:32.475Z,8.15
2023-03-15T07:51:09.611Z,8.50
2023-03-15T07:54:00.977Z,7.90
2023-03-15T07:56:50.366Z,7.32
2023-03-15T07:59:46.845Z,7.50
2023-03-15T08:02:29.027Z,8.60
2023-03-15T08:05:14.441Z,7.57
2023-03-15T08:07:59.721Z,6.53
2023-03-15T08:10:43.331Z,7.20
2023-03-15T08:13:29.910Z,7.30
2023-03-15T08:16:14.245Z,6.72
2023-03-15T08:19:03.585Z,6.88
2023-03-15T08:21:49.158Z,6.55
2023-03-15T08:24:31.350Z,6.97
2023-03-15T08:27:14.793Z,6.00
2023-03-15T08:30:03.070Z,6.90
2023-03-15T08:32:44.623Z,6.10
2023-03-15T08:35:30.361Z,6.40
2023-03-15T08:38:09.409Z,5.93
2023-03-15T08:41:00.934Z,6.07
2023-03-15T08:43:44.619Z,5.55
2023-03-15T08:46:25.819Z,6.32
2023-03-15T08:49:17.006Z,5.88
2023-03-15T08:51:58.928Z,5.60
2023-03-15T08:54:42.226Z,5.70
2023-03-15T08:57:40.914Z,5.43
2023-03-15T09:00:27.861Z,6.40
2023-03-15T09:03:08.884Z,6.22
2023-03-15T09:05:54.829Z,6.18
2023-03-15T09:08:29.916Z,6.07
2023-03-15T09:11:16.014Z,6.35
2023-03-15T09:14:04.715Z,5.50
2023-03-15T09:16:52.032Z,6.80
2023-03-15T09:19:32.964Z,6.20
2023-03-15T09:22:23.380Z,7.45
2023-03-15T09:25:10.496Z,5.90
2023-03-15T09:27:53.698Z,5.85
2023-03-15T09:30:35.435Z,6.18
2023-03-15T09:33:18.547Z,6.10
2023-03-15T09:36:07.105Z,6.40
2023-03-15T09:38:48.002Z,6.70
2023-03-15T09:41:48.229Z,6.57
2023-03-15T09:44:52.502Z,6.10
2023-03-15T09:48:03.056Z,7.45
2023-03-15T09:51:01.056Z,5.63
2023-03-15T09:53:55.478Z,5.93
2023-03-15T09:56:55.460Z,6.05
2023-03-15T09:59:39.996Z,5.82
2023-03-15T10:02:39.578Z,8.60
2023-03-15T10:05:28.960Z,7.13
2023-03-15T10:08:14.574Z,7.70
2023-03-15T10:11:42.529Z,7.78
2023-03-15T10:15:07.138Z,6.50
2023-03-15T10:18:22.306Z,6.68
2023-03-15T10:21:12.155Z,6.70
2023-03-15T10:24:00.183Z,6.82
2023-03-15T10:26:42.818Z,6.70
2023-03-15T10:29:24.080Z,7.00
2023-03-15T10:32:10.939Z,7.18
2023-03-15T10:35:01.401Z,6.68
2023-03-15T10:37:51.463Z,6.28
2023-03-15T10:40:52.286Z,7.28
2023-03-15T10:43:37.874Z,8.02
2023-03-15T10:46:31.879Z,6.53
2023-03-15T10:49:25.449Z,4.53
2023-03-15T10:52:09.074Z,4.50
2023-03-15T10:54:58.841Z,4.50
2023-03-15T10:58:02.694Z,5.38
2023-03-15T11:00:56.562Z,5.07
2023-03-15T11:03:37.389Z,5.13
2023-03-15T11:06:29.711Z,4.72
2023-03-15T11:09:26.567Z,5.25
2023-03-15T11:12:19.577Z,5.47
2023-03-15T11:15:08.836Z,5.85
2023-03-15T11:17:49.117Z,4.57
2023-03-15T11:20:37.763Z,5.22
2023-03-15T11:23:33.113Z,4.95
2023-03-15T11:26:32.551Z,5.65
2023-03-15T11:29:37.112Z,5.07
2023-03-15T11:32:20.866Z,5.50
2023-03-15T11:35:25.170Z,5.63
2023-03-15T11:38:17.560Z,4.95
2023-03-15T11:40:59.138Z,6.13
2023-03-15T11:43:57.700Z,5.85
2023-03-15T11:47:03.500Z,6.22
2023-03-15T11:49:53.463Z,6.32
2023-03-15T11:52:46.814Z,5.82
2023-03-15T11:55:53.687Z,5.73
2023-03-15T11:58:47.165Z,5.78
2023-03-15T12:01:39.318Z,5.93
2023-03-15T12:04:38.000Z,6.80
2023-03-15T12:07:31.858Z,7.15
2023-03-15T12:10:34.965Z,5.70
2023-03-15T12:13:35.395Z,5.45
2023-03-15T12:16:14.574Z,5.57
2023-03-15T12:19:05.422Z,6.75
2023-03-15T12:22:00.168Z,6.03
2023-03-15T12:24:45.027Z,6.10
2023-03-15T12:27:43.904Z,5.57
2023-03-15T12:30:56.501Z,5.70
2023-03-15T12:33:40.507Z,6.20
2023-03-15T12:36:39.416Z,5.65
2023-03-15T12:39:37.948Z,6.40
2023-03-15T12:42:39.106Z,5.88
2023-03-15T12:45:29.165Z,6.20
2023-03-15T12:48:33.993Z,6.07
2023-03-15T12:51:36.900Z,5.97
2023-03-15T12:54:22.837Z,7.47
2023-03-15T12:57:17.334Z,6.45
2023-03-15T13:00:38.924Z,5.65
2023-03-15T13:03:29.096Z,6.30
2023-03-15T13:06:10.748Z,5.18
2023-03-15T13:09:15.058Z,5.28
2023-03-15T13:12:08.411Z,5.55
2023-03-15T13:15:03.536Z,5.15
2023-03-15T13:17:56.525Z,5.90
2023-03-15T13:20:49.492Z,5.43
2023-03-15T13:23:43.146Z,4.78
2023-03-15T13:26:36.660Z,5.20
2023-03-15T13:29:36.667Z,4.50
2023-03-15T13:32:19.815Z,4.78
2023-03-15T13:35:02.441Z,4.43
2023-03-15T13:37:44.689Z,3.78
2023-03-15T13:40:33.419Z,4.05
2023-03-15T13:43:23.684Z,3.58
2023-03-15T13:46:07.461Z,3.67
2023-03-15T13:48:49.136Z,4.20
2023-03-15T13:51:34.855Z,3.72
2023-03-15T13:54:33.012Z,4.45
2023-03-15T13:57:27.806Z,4.55
2023-03-15T14:00:11.134Z,4.85
2023-03-15T14:03:01.367Z,5.13
2023-03-15T14:05:50.769Z,5.05
2023-03-15T14:08:41.959Z,5.30
2023-03-15T14:11:43.519Z,6.45
2023-03-15T14:14:35.772Z,6.68
2023-03-15T14:17:31.430Z,6.25
2023-03-15T14:20:27.768Z,5.95
2023-03-15T14:23:11.986Z,5.30
2023-03-15T14:26:03.633Z,4.80
2023-03-15T14:28:41.961Z,5.28
2023-03-15T14:31:31.127Z,4.90
2023-03-15T14:34:26.686Z,4.43
2023-03-15T14:37:07.719Z,4.77
2023-03-15T14:40:08.105Z,5.15
2023-03-15T14:42:52.989Z,4.15
2023-03-15T14:45:36.698Z,5.32
2023-03-15T14:48:33.401Z,5.32
2023-03-15T14:51:22.587Z,4.13
2023-03-15T14:54:11.010Z,4.97
2023-03-15T14:57:04.388Z,4.70
2023-03-15T14:59:48.345Z,4.47
2023-03-15T15:02:37.469Z,4.60
2023-03-15T15:05:34.743Z,5.07
2023-03-15T15:08:16.347Z,4.85
2023-03-15T15:11:05.745Z,6.03
2023-03-15T15:13:43.591Z,5.70
2023-03-15T15:16:19.050Z,5.45
2023-03-15T15:19:04.813Z,6.15
2023-03-15T15:21:45.588Z,5.70
2023-03-15T15:24:36.862Z,7.80
2023-03-15T15:27:23.017Z,5.75
2023-03-15T15:30:16.494Z,6.93
2023-03-15T15:32:58.499Z,6.65
2023-03-15T15:35:40.194Z,5.72
2023-03-15T15:38:33.220Z,6.13
2023-03-15T15:41:18.687Z,7.15
2023-03-15T15:44:01.973Z,5.95
2023-03-15T15:46:42.879Z,6.10
2023-03-15T15:49:26.555Z,5.10
2023-03-15T15:52:14.416Z,4.88
2023-03-15T15:54:55.651Z,5.63
2023-03-15T15:57:40.977Z,6.13
2023-03-15T16:00:25.916Z,6.68
2023-03-15T16:03:21.870Z,5.28
2023-03-15T16:06:05.904Z,4.93
2023-03-15T16:08:50.281Z,27.20
2023-03-15T16:11:29.253Z,9.20
2023-03-15T16:14:17.388Z,8.38
2023-03-15T16:16:58.717Z,6.95
2023-03-15T16:19:42.325Z,5.65
2023-03-15T16:22:29.275Z,5.05
2023-03-15T16:25:25.495Z,5.32
2023-03-15T16:28:10.113Z,10.20
2023-03-15T16:30:50.719Z,6.60
2023-03-15T16:33:42.364Z,6.07
2023-03-15T16:36:32.036Z,7.30
2023-03-15T16:39:18.789Z,9.43
2023-03-15T16:41:59.092Z,6.70
2023-03-15T16:44:42.434Z,5.78
2023-03-15T16:47:31.390Z,5.65
2023-03-15T16:50:12.246Z,5.63
2023-03-15T16:52:49.391Z,5.40
2023-03-15T16:55:39.962Z,5.13
2023-03-15T16:58:25.435Z,5.53
2023-03-15T17:01:06.722Z,4.97
2023-03-15T17:03:42.229Z,5.63
2023-03-15T17:06:36.819Z,6.10
2023-03-15T17:09:25.526Z,6.18
2023-03-15T17:12:05.808Z,6.20
2023-03-15T17:14:49.406Z,5.90
2023-03-15T17:17:34.505Z,5.38
2023-03-15T17:20:15.321Z,5.82
2023-03-15T17:22:51.351Z,5.80
2023-03-15T17:25:37.658Z,6.00
2023-03-15T17:28:21.748Z,6.15
2023-03-15T17:31:23.973Z,5.82
2023-03-15T17:34:15.326Z,5.53
2023-03-15T17:37:02.227Z,5.63
2023-03-15T17:39:39.934Z,5.85
2023-03-15T17:42:34.278Z,5.72
2023-03-15T17:45:24.024Z,5.80
2023-03-15T17:48:05.316Z,6.55
2023-03-15T17:50:47.182Z,5.75
2023-03-15T17:53:36.329Z,5.72
2023-03-15T17:56:30.461Z,5.57
2023-03-15T17:59:15.490Z,5.55
2023-03-15T18:02:04.938Z,5.90
2023-03-15T18:04:51.083Z,4.85
2023-03-15T18:07:31.996Z,5.47
2023-03-15T18:10:18.148Z,5.38
2023-03-15T18:13:07.397Z,6.18
2023-03-15T18:15:59.037Z,5.60
2023-03-15T18:18:31.462Z,6.00
2023-03-15T18:21:21.927Z,6.50
2023-03-15T18:24:01.530Z,5.30
2023-03-15T18:26:38.718Z,5.50
2023-03-15T18:29:28.094Z,6.15
2023-03-15T18:32:12.936Z,5.70
2023-03-15T18:34:57.487Z,6.20
2023-03-15T18:37:43.696Z,6.53
2023-03-15T18:40:18.533Z,6.38
2023-03-15T18:43:01.502Z,6.45
2023-03-15T18:45:44.552Z,6.67
2023-03-15T18:48:18.362Z,6.43
2023-03-15T18:51:02.978Z,6.60
2023-03-15T18:53:47.453Z,6.95
2023-03-15T18:56:35.902Z,6.30
2023-03-15T18:59:20.358Z,6.05
2023-03-15T19:02:04.980Z,5.43
2023-03-15T19:04:45.463Z,5.07
2023-03-15T19:07:38.629Z,6.20
2023-03-15T19:10:19.636Z,6.50
2023-03-15T19:13:02.436Z,5.82
2023-03-15T19:15:51.129Z,5.57
2023-03-15T19:18:34.949Z,5.85
2023-03-15T19:21:18.960Z,6.28
2023-03-15T19:24:00.509Z,7.18
2023-03-15T19:26:35.745Z,7.18
2023-03-15T19:29:13.416Z,6.93
2023-03-15T19:31:56.862Z,7.93
2023-03-15T19:34:45.572Z,10.55
2023-03-15T19:37:20.774Z,8.20
2023-03-15T19:40:05.170Z,10.35
2023-03-15T19:42:48.750Z,9.68
2023-03-15T19:45:42.420Z,9.30
2023-03-15T19:48:26.111Z,10.13
2023-03-15T19:51:09.854Z,9.43
2023-03-15T19:53:59.929Z,10.15
2023-03-15T19:56:38.054Z,9.55
2023-03-15T19:59:18.724Z,8.88
2023-03-15T20:02:01.061Z,8.20
2023-03-15T20:04:44.258Z,7.65
2023-03-15T20:07:21.490Z,7.47
2023-03-15T20:10:08.552Z,9.30
2023-03-15T20:12:59.046Z,7.90
2023-03-15T20:15:44.549Z,8.80
2023-03-15T20:18:31.738Z,8.77
2023-03-15T20:21:14.816Z,9.10
2023-03-15T20:24:07.749Z,9.55
2023-03-15T20:26:54.651Z,12.07
2023-03-15T20:29:35.249Z,12.80
2023-03-15T20:32:20.471Z,14.38
2023-03-15T20:35:02.413Z,13.70
2023-03-15T20:37:44.124Z,12.73
2023-03-15T20:40:18.143Z,11.65
2023-03-15T20:43:05.476Z,12.35
2023-03-15T20:45:45.929Z,12.25
2023-03-15T20:48:29.749Z,11.82
2023-03-15T20:51:12.901Z,10.88
2023-03-15T20:53:54.181Z,9.50
2023-03-15T20:56:45.987Z,10.57
2023-03-15T20:59:29.810Z,8.27
2023-03-15T21:04:51.848Z,7.10
2023-03-15T21:07:32.912Z,8.18
2023-03-15T21:10:17.164Z,7.38
2023-03-15T21:13:00.113Z,6.93
2023-03-15T21:15:51.189Z,5.93
2023-03-15T21:18:32.873Z,6.32
2023-03-15T21:21:15.656Z,5.65
2023-03-15T21:23:54.393Z,4.93
2023-03-15T21:26:39.373Z,5.68
2023-03-15T21:29:18.109Z,5.88
2023-03-15T21:31:59.063Z,5.47
2023-03-15T21:34:39.652Z,6.28
2023-03-15T21:37:34.747Z,5.53
2023-03-15T21:40:17.430Z,5.80
2023-03-15T21:42:52.694Z,5.72
2023-03-15T21:45:38.980Z,6.07
2023-03-15T21:48:28.290Z,5.97
2023-03-15T21:51:11.189Z,5.63
2023-03-15T21:54:00.308Z,5.93
2023-03-15T21:56:42.404Z,6.03
2023-03-15T21:59:28.793Z,6.25
2023-03-15T22:04:56.063Z,5.70
2023-03-15T22:10:15.672Z,6.35
2023-03-15T22:13:01.502Z,5.93
2023-03-15T22:15:42.351Z,5.80
2023-03-15T22:18:23.714Z,5.57
2023-03-15T22:20:59.400Z,5.88
2023-03-15T22:23:51.460Z,5.63
2023-03-15T22:26:32.482Z,5.55
2023-03-15T22:29:11.108Z,5.30
2023-03-15T22:32:01.796Z,6.70
2023-03-15T22:34:47.550Z,5.45
2023-03-15T22:37:34.465Z,6.20
2023-03-15T22:40:14.272Z,6.72
2023-03-15T22:42:54.489Z,7.63
2023-03-15T22:45:37.759Z,7.13
2023-03-15T22:48:22.922Z,7.82
2023-03-15T22:51:18.644Z,6.85
2023-03-15T22:53:59.388Z,6.53
2023-03-15T22:56:45.556Z,6.90
2023-03-15T22:59:29.030Z,7.00
2023-03-15T23:02:07.395Z,5.88
2023-03-15T23:04:53.184Z,7.63
2023-03-15T23:07:39.149Z,6.63
2023-03-15T23:10:25.623Z,7.20
2023-03-15T23:13:06.714Z,6.13
2023-03-15T23:15:45.191Z,7.55
2023-03-15T23:18:31.971Z,7.13
2023-03-15T23:21:15.509Z,7.45
2023-03-15T23:23:55.384Z,6.18
2023-03-15T23:26:47.561Z,6.93
2023-03-15T23:29:26.877Z,5.57
2023-03-15T23:32:09.662Z,5.78
2023-03-15T23:34:48.304Z,5.68
2023-03-15T23:37:33.039Z,5.45
2023-03-15T23:40:15.890Z,5.43
2023-03-15T23:43:02.823Z,5.57
2023-03-15T23:45:45.238Z,5.10
2023-03-15T23:48:25.836Z,5.60
2023-03-15T23:51:13.341Z,5.25
2023-03-15T23:53:56.617Z,5.65
2023-03-15T23:56:33.808Z,6.68
2023-03-15T23:59:17.669Z,5.38
